Terminal Aerodrome Forecast
Issued by NWS

Home | Current Version | Previous Version | Text Only | Print | Product List | Glossary On
Versions: 1 2 3 4 5 6 7 8 9 10 11 12 13
864
FTUS46 KMTR 271120
TAFSJC
TAF
KSJC 271120Z 2712/2812 VRB04KT P6SM VCSH BKN035 BKN050
     FM271600 30006KT P6SM SCT040 SCT060
     FM272200 29012KT P6SM SCT100
     FM280500 28005KT P6SM SCT100=

USA.gov is the U.S. government's official web portal to all federal, state and local government web resources and services.